sensor_id;sensor_type;location;lat;lon;timestamp;pressure;altitude;pressure_sealevel;temperature;humidity
64644;BME280;51056;50.330;7.914;2022-08-01T00:01:00;100626.97;;;20.24;71.53
64644;BME280;51056;50.330;7.914;2022-08-01T00:04:04;100628.53;;;20.36;70.89
64644;BME280;51056;50.330;7.914;2022-08-01T00:07:07;100630.47;;;20.14;71.86
64644;BME280;51056;50.330;7.914;2022-08-01T00:10:13;100627.53;;;19.98;72.86
64644;BME280;51056;50.330;7.914;2022-08-01T00:13:17;100620.84;;;20.13;71.97
64644;BME280;51056;50.330;7.914;2022-08-01T00:16:20;100624.72;;;20.09;72.48
64644;BME280;51056;50.330;7.914;2022-08-01T00:19:25;100631.56;;;19.92;73.09
64644;BME280;51056;50.330;7.914;2022-08-01T00:22:30;100630.75;;;20.11;72.26
64644;BME280;51056;50.330;7.914;2022-08-01T00:25:34;100625.72;;;20.08;72.38
64644;BME280;51056;50.330;7.914;2022-08-01T00:28:37;100629.09;;;20.10;71.87
64644;BME280;51056;50.330;7.914;2022-08-01T00:31:41;100628.50;;;20.16;71.79
64644;BME280;51056;50.330;7.914;2022-08-01T00:34:44;100624.88;;;20.37;71.13
64644;BME280;51056;50.330;7.914;2022-08-01T00:37:48;100633.97;;;20.34;71.08
64644;BME280;51056;50.330;7.914;2022-08-01T00:40:52;100629.22;;;20.18;72.18
64644;BME280;51056;50.330;7.914;2022-08-01T00:43:56;100622.50;;;19.95;73.21
64644;BME280;51056;50.330;7.914;2022-08-01T00:46:59;100625.81;;;19.87;73.74
64644;BME280;51056;50.330;7.914;2022-08-01T00:50:04;100621.69;;;20.04;73.10
64644;BME280;51056;50.330;7.914;2022-08-01T00:53:07;100636.16;;;19.90;73.50
64644;BME280;51056;50.330;7.914;2022-08-01T00:56:12;100630.56;;;19.84;73.62
64644;BME280;51056;50.330;7.914;2022-08-01T00:59:17;100636.19;;;20.00;72.82
64644;BME280;51056;50.330;7.914;2022-08-01T01:02:20;100631.56;;;19.83;73.66
64644;BME280;51056;50.330;7.914;2022-08-01T01:05:24;100625.94;;;19.66;74.25
64644;BME280;51056;50.330;7.914;2022-08-01T01:08:35;100628.13;;;19.61;74.28
64644;BME280;51056;50.330;7.914;2022-08-01T01:18:18;100626.75;;;19.26;75.87
64644;BME280;51056;50.330;7.914;2022-08-01T01:28:36;100640.06;;;19.36;76.06
64644;BME280;51056;50.330;7.914;2022-08-01T01:31:55;100627.75;;;19.25;76.75
64644;BME280;51056;50.330;7.914;2022-08-01T01:38:29;100638.63;;;19.22;76.45
64644;BME280;51056;50.330;7.914;2022-08-01T01:41:34;100638.41;;;19.14;76.95
64644;BME280;51056;50.330;7.914;2022-08-01T01:44:40;100647.81;;;19.18;77.29
64644;BME280;51056;50.330;7.914;2022-08-01T01:47:45;100642.41;;;19.29;76.63
64644;BME280;51056;50.330;7.914;2022-08-01T01:50:49;100640.47;;;19.32;77.17
64644;BME280;51056;50.330;7.914;2022-08-01T01:53:55;100642.13;;;19.33;76.54
64644;BME280;51056;50.330;7.914;2022-08-01T01:57:00;100648.81;;;19.27;77.15
64644;BME280;51056;50.330;7.914;2022-08-01T02:00:05;100641.25;;;19.22;77.79
64644;BME280;51056;50.330;7.914;2022-08-01T02:03:12;100641.97;;;19.24;77.95
64644;BME280;51056;50.330;7.914;2022-08-01T02:06:18;100634.59;;;19.28;77.81
64644;BME280;51056;50.330;7.914;2022-08-01T02:09:23;100635.44;;;19.28;77.58
64644;BME280;51056;50.330;7.914;2022-08-01T02:12:29;100629.59;;;19.35;77.32
64644;BME280;51056;50.330;7.914;2022-08-01T02:15:36;100627.94;;;19.34;77.59
64644;BME280;51056;50.330;7.914;2022-08-01T02:18:42;100638.53;;;19.34;77.17
64644;BME280;51056;50.330;7.914;2022-08-01T02:22:05;100642.44;;;19.39;77.07
64644;BME280;51056;50.330;7.914;2022-08-01T02:25:48;100649.00;;;19.35;76.99
64644;BME280;51056;50.330;7.914;2022-08-01T02:29:02;100647.59;;;19.31;77.40
64644;BME280;51056;50.330;7.914;2022-08-01T02:32:15;100646.47;;;19.64;76.19
64644;BME280;51056;50.330;7.914;2022-08-01T02:35:26;100643.44;;;19.79;75.14
64644;BME280;51056;50.330;7.914;2022-08-01T02:38:32;100642.06;;;19.54;76.24
64644;BME280;51056;50.330;7.914;2022-08-01T02:41:40;100651.13;;;19.51;76.25
64644;BME280;51056;50.330;7.914;2022-08-01T02:44:46;100648.06;;;19.56;76.24
64644;BME280;51056;50.330;7.914;2022-08-01T02:47:53;100647.34;;;19.44;76.68
64644;BME280;51056;50.330;7.914;2022-08-01T02:51:00;100646.53;;;19.43;76.51
64644;BME280;51056;50.330;7.914;2022-08-01T02:54:06;100635.22;;;19.51;76.23
64644;BME280;51056;50.330;7.914;2022-08-01T02:57:10;100640.81;;;19.58;75.93
64644;BME280;51056;50.330;7.914;2022-08-01T03:00:15;100634.16;;;19.63;75.33
64644;BME280;51056;50.330;7.914;2022-08-01T03:03:19;100638.31;;;19.56;75.45
64644;BME280;51056;50.330;7.914;2022-08-01T03:06:24;100634.03;;;19.74;74.46
64644;BME280;51056;50.330;7.914;2022-08-01T03:09:29;100633.22;;;19.74;74.64
64644;BME280;51056;50.330;7.914;2022-08-01T03:12:34;100628.91;;;19.92;73.72
64644;BME280;51056;50.330;7.914;2022-08-01T03:15:41;100632.13;;;19.96;73.51
64644;BME280;51056;50.330;7.914;2022-08-01T03:18:46;100630.56;;;19.84;74.20
64644;BME280;51056;50.330;7.914;2022-08-01T03:21:51;100639.78;;;19.80;74.83
64644;BME280;51056;50.330;7.914;2022-08-01T03:24:56;100645.97;;;20.00;73.93
64644;BME280;51056;50.330;7.914;2022-08-01T03:28:04;100639.81;;;19.99;74.43
64644;BME280;51056;50.330;7.914;2022-08-01T03:31:09;100641.63;;;19.98;75.16
64644;BME280;51056;50.330;7.914;2022-08-01T03:34:13;100642.34;;;20.20;74.19
64644;BME280;51056;50.330;7.914;2022-08-01T03:37:24;100640.38;;;20.32;72.77
64644;BME280;51056;50.330;7.914;2022-08-01T03:40:38;100637.31;;;20.36;72.73
64644;BME280;51056;50.330;7.914;2022-08-01T03:43:58;100636.59;;;20.44;72.24
64644;BME280;51056;50.330;7.914;2022-08-01T03:47:05;100646.13;;;20.56;72.18
64644;BME280;51056;50.330;7.914;2022-08-01T03:50:11;100647.38;;;20.33;73.81
64644;BME280;51056;50.330;7.914;2022-08-01T03:53:20;100635.06;;;20.41;73.69
64644;BME280;51056;50.330;7.914;2022-08-01T03:56:26;100634.66;;;20.36;74.24
64644;BME280;51056;50.330;7.914;2022-08-01T03:59:31;100637.03;;;20.39;74.00
64644;BME280;51056;50.330;7.914;2022-08-01T04:02:37;100642.91;;;20.43;73.78
64644;BME280;51056;50.330;7.914;2022-08-01T04:05:45;100636.50;;;20.36;74.23
64644;BME280;51056;50.330;7.914;2022-08-01T04:08:48;100634.66;;;20.27;73.56
64644;BME280;51056;50.330;7.914;2022-08-01T04:11:59;100639.53;;;20.51;73.53
64644;BME280;51056;50.330;7.914;2022-08-01T04:15:04;100649.06;;;20.43;73.75
64644;BME280;51056;50.330;7.914;2022-08-01T04:18:07;100644.84;;;20.60;72.75
64644;BME280;51056;50.330;7.914;2022-08-01T04:21:12;100642.94;;;20.53;73.53
64644;BME280;51056;50.330;7.914;2022-08-01T04:24:17;100648.22;;;20.62;73.38
64644;BME280;51056;50.330;7.914;2022-08-01T04:27:25;100653.38;;;20.74;72.85
64644;BME280;51056;50.330;7.914;2022-08-01T04:30:34;100653.38;;;20.74;72.24
64644;BME280;51056;50.330;7.914;2022-08-01T04:33:42;100664.00;;;20.64;73.99
64644;BME280;51056;50.330;7.914;2022-08-01T04:36:48;100655.06;;;20.36;75.97
64644;BME280;51056;50.330;7.914;2022-08-01T04:39:54;100666.09;;;20.51;74.74
64644;BME280;51056;50.330;7.914;2022-08-01T04:42:58;100668.66;;;20.52;74.92
64644;BME280;51056;50.330;7.914;2022-08-01T04:46:02;100660.97;;;20.59;73.02
64644;BME280;51056;50.330;7.914;2022-08-01T04:49:07;100669.75;;;20.69;72.00
64644;BME280;51056;50.330;7.914;2022-08-01T04:52:12;100678.94;;;20.94;71.07
64644;BME280;51056;50.330;7.914;2022-08-01T04:55:16;100677.78;;;21.06;70.51
64644;BME280;51056;50.330;7.914;2022-08-01T04:58:20;100681.72;;;20.93;72.28
64644;BME280;51056;50.330;7.914;2022-08-01T05:01:23;100674.44;;;21.04;71.88
64644;BME280;51056;50.330;7.914;2022-08-01T05:04:26;100680.88;;;20.92;70.08
64644;BME280;51056;50.330;7.914;2022-08-01T05:07:30;100684.66;;;20.89;69.65
64644;BME280;51056;50.330;7.914;2022-08-01T05:10:34;100681.13;;;21.08;69.11
64644;BME280;51056;50.330;7.914;2022-08-01T05:13:38;100691.75;;;21.08;71.11
64644;BME280;51056;50.330;7.914;2022-08-01T05:16:41;100684.63;;;21.09;71.63
64644;BME280;51056;50.330;7.914;2022-08-01T05:19:44;100684.81;;;20.88;70.90
64644;BME280;51056;50.330;7.914;2022-08-01T05:22:48;100685.09;;;20.85;70.27
64644;BME280;51056;50.330;7.914;2022-08-01T05:25:51;100682.03;;;20.70;70.31
64644;BME280;51056;50.330;7.914;2022-08-01T05:28:55;100684.81;;;20.88;69.59
64644;BME280;51056;50.330;7.914;2022-08-01T05:31:58;100687.09;;;20.63;70.56
64644;BME280;51056;50.330;7.914;2022-08-01T05:35:03;100697.56;;;20.75;70.03
64644;BME280;51056;50.330;7.914;2022-08-01T05:38:07;100693.78;;;20.87;69.50
64644;BME280;51056;50.330;7.914;2022-08-01T05:41:11;100705.66;;;20.83;69.48
64644;BME280;51056;50.330;7.914;2022-08-01T05:44:14;100696.59;;;20.76;70.10
64644;BME280;51056;50.330;7.914;2022-08-01T05:47:18;100711.13;;;20.91;69.55
64644;BME280;51056;50.330;7.914;2022-08-01T05:50:21;100706.78;;;20.90;69.37
64644;BME280;51056;50.330;7.914;2022-08-01T05:53:25;100712.09;;;20.71;70.57
64644;BME280;51056;50.330;7.914;2022-08-01T05:56:29;100713.53;;;20.75;70.37
64644;BME280;51056;50.330;7.914;2022-08-01T05:59:32;100715.19;;;20.76;70.44
64644;BME280;51056;50.330;7.914;2022-08-01T06:02:40;100706.25;;;20.67;71.18
64644;BME280;51056;50.330;7.914;2022-08-01T06:05:43;100717.13;;;20.74;70.92
64644;BME280;51056;50.330;7.914;2022-08-01T06:08:46;100717.59;;;20.59;71.30
64644;BME280;51056;50.330;7.914;2022-08-01T06:11:50;100719.25;;;20.70;71.00
64644;BME280;51056;50.330;7.914;2022-08-01T06:14:54;100716.75;;;20.69;71.30
64644;BME280;51056;50.330;7.914;2022-08-01T06:17:58;100719.22;;;20.80;71.15
64644;BME280;51056;50.330;7.914;2022-08-01T06:21:02;100727.34;;;20.98;70.63
64644;BME280;51056;50.330;7.914;2022-08-01T06:24:05;100724.66;;;21.07;69.69
64644;BME280;51056;50.330;7.914;2022-08-01T06:27:09;100732.78;;;21.16;69.88
64644;BME280;51056;50.330;7.914;2022-08-01T06:30:12;100729.16;;;20.97;70.14
64644;BME280;51056;50.330;7.914;2022-08-01T06:33:16;100734.00;;;21.11;70.13
64644;BME280;51056;50.330;7.914;2022-08-01T06:36:20;100731.19;;;21.23;69.09
64644;BME280;51056;50.330;7.914;2022-08-01T06:39:24;100733.16;;;21.21;68.89
64644;BME280;51056;50.330;7.914;2022-08-01T06:42:27;100729.78;;;21.38;68.91
64644;BME280;51056;50.330;7.914;2022-08-01T06:45:31;100737.88;;;21.46;68.52
64644;BME280;51056;50.330;7.914;2022-08-01T06:48:34;100727.72;;;21.59;67.57
64644;BME280;51056;50.330;7.914;2022-08-01T06:51:42;100731.34;;;21.68;67.11
64644;BME280;51056;50.330;7.914;2022-08-01T06:54:46;100726.03;;;21.68;67.13
64644;BME280;51056;50.330;7.914;2022-08-01T06:57:51;100729.63;;;21.77;66.41
64644;BME280;51056;50.330;7.914;2022-08-01T07:00:54;100726.91;;;21.59;67.75
64644;BME280;51056;50.330;7.914;2022-08-01T07:03:57;100729.34;;;21.80;67.22
64644;BME280;51056;50.330;7.914;2022-08-01T07:07:01;100730.28;;;21.79;67.27
64644;BME280;51056;50.330;7.914;2022-08-01T07:10:04;100733.66;;;21.81;66.64
64644;BME280;51056;50.330;7.914;2022-08-01T07:13:08;100720.84;;;21.94;66.11
64644;BME280;51056;50.330;7.914;2022-08-01T07:16:15;100731.13;;;21.89;66.90
64644;BME280;51056;50.330;7.914;2022-08-01T07:19:18;100721.00;;;22.11;65.48
64644;BME280;51056;50.330;7.914;2022-08-01T07:22:21;100725.03;;;21.97;66.14
64644;BME280;51056;50.330;7.914;2022-08-01T07:25:25;100725.13;;;21.77;67.00
64644;BME280;51056;50.330;7.914;2022-08-01T07:28:29;100724.69;;;21.82;66.64
64644;BME280;51056;50.330;7.914;2022-08-01T07:31:33;100730.41;;;21.87;66.60
64644;BME280;51056;50.330;7.914;2022-08-01T07:34:38;100734.50;;;21.81;66.35
64644;BME280;51056;50.330;7.914;2022-08-01T07:37:41;100729.75;;;21.48;66.49
64644;BME280;51056;50.330;7.914;2022-08-01T07:40:45;100729.91;;;21.74;65.68
64644;BME280;51056;50.330;7.914;2022-08-01T07:43:49;100729.34;;;21.80;66.00
64644;BME280;51056;50.330;7.914;2022-08-01T07:46:52;100728.75;;;21.86;65.11
64644;BME280;51056;50.330;7.914;2022-08-01T07:50:00;100718.88;;;21.96;64.44
64644;BME280;51056;50.330;7.914;2022-08-01T07:53:06;100720.09;;;22.02;64.16
64644;BME280;51056;50.330;7.914;2022-08-01T07:56:10;100721.31;;;22.08;63.27
64644;BME280;51056;50.330;7.914;2022-08-01T07:59:13;100723.06;;;21.99;63.42
64644;BME280;51056;50.330;7.914;2022-08-01T08:02:17;100727.75;;;21.87;63.70
64644;BME280;51056;50.330;7.914;2022-08-01T08:05:21;100717.56;;;22.00;62.85
64644;BME280;51056;50.330;7.914;2022-08-01T08:08:24;100724.22;;;22.24;62.83
64644;BME280;51056;50.330;7.914;2022-08-01T08:11:30;100725.47;;;22.56;61.30
64644;BME280;51056;50.330;7.914;2022-08-01T08:14:33;100718.88;;;22.60;60.47
64644;BME280;51056;50.330;7.914;2022-08-01T08:17:37;100716.84;;;22.80;59.96
64644;BME280;51056;50.330;7.914;2022-08-01T08:20:40;100716.06;;;23.05;59.59
64644;BME280;51056;50.330;7.914;2022-08-01T08:23:43;100726.56;;;22.63;60.08
64644;BME280;51056;50.330;7.914;2022-08-01T08:27:05;100724.34;;;22.58;59.85
64644;BME280;51056;50.330;7.914;2022-08-01T08:30:11;100721.22;;;22.63;60.47
64644;BME280;51056;50.330;7.914;2022-08-01T08:33:15;100720.41;;;22.62;59.75
64644;BME280;51056;50.330;7.914;2022-08-01T08:36:18;100716.56;;;22.65;60.35
64644;BME280;51056;50.330;7.914;2022-08-01T08:39:22;100715.94;;;22.89;59.12
64644;BME280;51056;50.330;7.914;2022-08-01T08:42:26;100709.84;;;22.96;59.12
64644;BME280;51056;50.330;7.914;2022-08-01T08:45:30;100717.19;;;22.94;59.45
64644;BME280;51056;50.330;7.914;2022-08-01T08:48:34;100717.88;;;22.79;60.12
64644;BME280;51056;50.330;7.914;2022-08-01T08:51:41;100713.22;;;22.63;60.21
64644;BME280;51056;50.330;7.914;2022-08-01T08:54:45;100706.81;;;22.73;59.99
64644;BME280;51056;50.330;7.914;2022-08-01T08:57:49;100702.53;;;22.81;59.69
64644;BME280;51056;50.330;7.914;2022-08-01T09:00:54;100703.53;;;22.97;58.62
64644;BME280;51056;50.330;7.914;2022-08-01T09:03:59;100692.22;;;23.30;57.37
64644;BME280;51056;50.330;7.914;2022-08-01T09:07:04;100691.03;;;23.66;56.26
64644;BME280;51056;50.330;7.914;2022-08-01T09:10:08;100695.53;;;24.00;56.11
64644;BME280;51056;50.330;7.914;2022-08-01T09:13:25;100694.56;;;24.09;54.82
64644;BME280;51056;50.330;7.914;2022-08-01T09:16:33;100692.03;;;24.08;54.63
64644;BME280;51056;50.330;7.914;2022-08-01T09:19:49;100695.88;;;23.63;55.49
64644;BME280;51056;50.330;7.914;2022-08-01T09:22:54;100697.50;;;23.56;55.83
64644;BME280;51056;50.330;7.914;2022-08-01T09:25:57;100690.16;;;23.50;55.94
64644;BME280;51056;50.330;7.914;2022-08-01T09:29:06;100691.25;;;23.73;54.91
64644;BME280;51056;50.330;7.914;2022-08-01T09:32:11;100700.19;;;23.90;55.15
64644;BME280;51056;50.330;7.914;2022-08-01T09:35:28;100704.59;;;23.73;54.80
64644;BME280;51056;50.330;7.914;2022-08-01T09:38:35;100694.16;;;23.54;55.27
64644;BME280;51056;50.330;7.914;2022-08-01T09:41:39;100686.94;;;23.72;54.94
64644;BME280;51056;50.330;7.914;2022-08-01T09:44:44;100688.19;;;23.60;55.09
64644;BME280;51056;50.330;7.914;2022-08-01T09:47:48;100689.59;;;23.72;54.85
64644;BME280;51056;50.330;7.914;2022-08-01T09:50:52;100684.63;;;23.85;54.39
64644;BME280;51056;50.330;7.914;2022-08-01T09:53:56;100696.34;;;24.01;54.18
64644;BME280;51056;50.330;7.914;2022-08-01T09:57:11;100699.56;;;24.12;52.47
64644;BME280;51056;50.330;7.914;2022-08-01T10:00:17;100696.53;;;24.07;53.25
64644;BME280;51056;50.330;7.914;2022-08-01T10:03:26;100692.38;;;24.21;52.40
64644;BME280;51056;50.330;7.914;2022-08-01T10:07:03;100689.72;;;24.29;52.48
64644;BME280;51056;50.330;7.914;2022-08-01T10:10:18;100696.88;;;24.21;50.52
64644;BME280;51056;50.330;7.914;2022-08-01T10:13:22;100701.91;;;24.24;50.86
64644;BME280;51056;50.330;7.914;2022-08-01T10:16:29;100701.69;;;24.09;50.81
64644;BME280;51056;50.330;7.914;2022-08-01T10:19:34;100699.75;;;24.19;50.49
64644;BME280;51056;50.330;7.914;2022-08-01T10:22:38;100693.59;;;24.35;49.89
64644;BME280;51056;50.330;7.914;2022-08-01T10:25:44;100692.47;;;24.54;48.43
64644;BME280;51056;50.330;7.914;2022-08-01T10:28:48;100680.69;;;24.30;48.49
64644;BME280;51056;50.330;7.914;2022-08-01T10:31:53;100685.38;;;24.36;49.96
64644;BME280;51056;50.330;7.914;2022-08-01T10:34:58;100677.69;;;24.33;50.11
64644;BME280;51056;50.330;7.914;2022-08-01T10:38:02;100684.41;;;24.62;49.22
64644;BME280;51056;50.330;7.914;2022-08-01T10:41:06;100670.88;;;24.72;47.07
64644;BME280;51056;50.330;7.914;2022-08-01T10:44:09;100660.69;;;24.67;46.06
64644;BME280;51056;50.330;7.914;2022-08-01T10:47:14;100660.13;;;25.13;48.38
64644;BME280;51056;50.330;7.914;2022-08-01T10:50:23;100656.84;;;25.42;47.08
64644;BME280;51056;50.330;7.914;2022-08-01T10:53:28;100657.00;;;25.80;46.96
64644;BME280;51056;50.330;7.914;2022-08-01T10:56:46;100648.31;;;25.78;47.57
64644;BME280;51056;50.330;7.914;2022-08-01T10:59:51;100642.34;;;25.67;47.17
64644;BME280;51056;50.330;7.914;2022-08-01T11:03:01;100645.63;;;25.46;46.47
64644;BME280;51056;50.330;7.914;2022-08-01T11:06:06;100645.84;;;25.37;46.47
64644;BME280;51056;50.330;7.914;2022-08-01T11:12:17;100638.59;;;25.45;45.44
64644;BME280;51056;50.330;7.914;2022-08-01T11:15:21;100646.28;;;25.80;45.11
64644;BME280;51056;50.330;7.914;2022-08-01T11:18:30;100646.13;;;25.81;45.57
64644;BME280;51056;50.330;7.914;2022-08-01T11:24:56;100640.41;;;25.53;45.42
64644;BME280;51056;50.330;7.914;2022-08-01T11:28:19;100646.50;;;25.39;45.49
64644;BME280;51056;50.330;7.914;2022-08-01T11:31:28;100649.09;;;25.55;45.53
64644;BME280;51056;50.330;7.914;2022-08-01T11:34:54;100640.50;;;25.37;47.66
64644;BME280;51056;50.330;7.914;2022-08-01T11:38:26;100648.88;;;25.25;47.73
64644;BME280;51056;50.330;7.914;2022-08-01T11:41:32;100641.47;;;25.44;47.15
64644;BME280;51056;50.330;7.914;2022-08-01T11:44:51;100654.88;;;25.75;46.26
64644;BME280;51056;50.330;7.914;2022-08-01T11:47:54;100642.94;;;25.78;46.35
64644;BME280;51056;50.330;7.914;2022-08-01T11:50:58;100624.44;;;25.99;44.85
64644;BME280;51056;50.330;7.914;2022-08-01T11:54:01;100621.97;;;26.35;44.54
64644;BME280;51056;50.330;7.914;2022-08-01T11:57:34;100621.69;;;26.45;43.86
64644;BME280;51056;50.330;7.914;2022-08-01T12:00:41;100624.88;;;26.26;45.32
64644;BME280;51056;50.330;7.914;2022-08-01T12:03:55;100628.25;;;26.05;46.28
64644;BME280;51056;50.330;7.914;2022-08-01T12:07:11;100624.13;;;25.94;47.52
64644;BME280;51056;50.330;7.914;2022-08-01T12:10:16;100620.03;;;26.29;46.95
64644;BME280;51056;50.330;7.914;2022-08-01T12:13:20;100621.50;;;26.32;45.71
64644;BME280;51056;50.330;7.914;2022-08-01T12:16:24;100630.72;;;26.06;47.22
64644;BME280;51056;50.330;7.914;2022-08-01T12:19:49;100624.25;;;26.24;45.95
64644;BME280;51056;50.330;7.914;2022-08-01T12:22:54;100625.50;;;26.13;47.25
64644;BME280;51056;50.330;7.914;2022-08-01T12:25:58;100637.78;;;26.30;45.49
64644;BME280;51056;50.330;7.914;2022-08-01T12:29:03;100620.41;;;26.41;45.09
64644;BME280;51056;50.330;7.914;2022-08-01T12:35:32;100632.28;;;26.24;45.69
64644;BME280;51056;50.330;7.914;2022-08-01T12:38:39;100627.72;;;26.47;45.27
64644;BME280;51056;50.330;7.914;2022-08-01T12:41:43;100635.94;;;25.77;48.01
64644;BME280;51056;50.330;7.914;2022-08-01T12:44:51;100638.88;;;25.59;48.51
64644;BME280;51056;50.330;7.914;2022-08-01T12:47:55;100642.69;;;25.64;47.82
64644;BME280;51056;50.330;7.914;2022-08-01T12:51:02;100634.75;;;25.40;48.26
64644;BME280;51056;50.330;7.914;2022-08-01T12:54:05;100637.91;;;25.51;48.28
64644;BME280;51056;50.330;7.914;2022-08-01T12:57:23;100649.97;;;25.47;49.80
64644;BME280;51056;50.330;7.914;2022-08-01T13:00:27;100641.88;;;25.24;48.87
64644;BME280;51056;50.330;7.914;2022-08-01T13:03:30;100655.06;;;25.26;48.69
64644;BME280;51056;50.330;7.914;2022-08-01T13:06:33;100658.97;;;25.15;48.82
64644;BME280;51056;50.330;7.914;2022-08-01T13:09:51;100649.91;;;25.16;48.85
64644;BME280;51056;50.330;7.914;2022-08-01T13:13:00;100655.28;;;25.16;47.65
64644;BME280;51056;50.330;7.914;2022-08-01T13:16:13;100652.25;;;25.11;47.11
64644;BME280;51056;50.330;7.914;2022-08-01T13:19:16;100647.44;;;25.15;47.33
64644;BME280;51056;50.330;7.914;2022-08-01T13:22:20;100651.75;;;25.08;47.77
64644;BME280;51056;50.330;7.914;2022-08-01T13:25:25;100654.25;;;25.09;47.28
64644;BME280;51056;50.330;7.914;2022-08-01T13:28:32;100654.28;;;25.01;47.26
64644;BME280;51056;50.330;7.914;2022-08-01T13:31:38;100647.75;;;25.12;47.12
64644;BME280;51056;50.330;7.914;2022-08-01T13:34:43;100651.03;;;25.30;46.70
64644;BME280;51056;50.330;7.914;2022-08-01T13:37:47;100648.34;;;25.30;46.91
64644;BME280;51056;50.330;7.914;2022-08-01T13:40:58;100648.13;;;25.48;46.57
64644;BME280;51056;50.330;7.914;2022-08-01T13:44:01;100647.22;;;25.24;45.80
64644;BME280;51056;50.330;7.914;2022-08-01T13:47:13;100649.84;;;25.33;45.92
64644;BME280;51056;50.330;7.914;2022-08-01T13:50:17;100645.88;;;25.28;46.26
64644;BME280;51056;50.330;7.914;2022-08-01T13:53:20;100650.44;;;25.59;45.71
64644;BME280;51056;50.330;7.914;2022-08-01T13:56:27;100641.97;;;25.39;45.68
64644;BME280;51056;50.330;7.914;2022-08-01T13:59:31;100644.09;;;25.52;45.58
64644;BME280;51056;50.330;7.914;2022-08-01T14:02:35;100645.28;;;25.49;45.48
64644;BME280;51056;50.330;7.914;2022-08-01T14:05:38;100644.13;;;25.44;46.01
64644;BME280;51056;50.330;7.914;2022-08-01T14:08:43;100635.31;;;25.27;46.59
64644;BME280;51056;50.330;7.914;2022-08-01T14:11:48;100640.72;;;25.19;46.49
64644;BME280;51056;50.330;7.914;2022-08-01T14:14:54;100648.22;;;25.23;46.28
64644;BME280;51056;50.330;7.914;2022-08-01T14:17:57;100640.56;;;25.12;46.70
64644;BME280;51056;50.330;7.914;2022-08-01T14:21:10;100646.56;;;25.14;46.36
64644;BME280;51056;50.330;7.914;2022-08-01T14:24:13;100652.25;;;25.11;46.44
64644;BME280;51056;50.330;7.914;2022-08-01T14:27:17;100646.41;;;25.24;45.84
64644;BME280;51056;50.330;7.914;2022-08-01T14:30:20;100653.34;;;25.41;45.58
64644;BME280;51056;50.330;7.914;2022-08-01T14:33:24;100639.06;;;25.57;45.17
64644;BME280;51056;50.330;7.914;2022-08-01T14:36:28;100640.03;;;26.18;43.26
64644;BME280;51056;50.330;7.914;2022-08-01T14:39:31;100634.25;;;30.43;35.86
64644;BME280;51056;50.330;7.914;2022-08-01T14:42:36;100641.91;;;29.58;36.87
64644;BME280;51056;50.330;7.914;2022-08-01T14:45:39;100645.75;;;28.23;38.53
64644;BME280;51056;50.330;7.914;2022-08-01T14:48:46;100641.03;;;29.03;37.97
64644;BME280;51056;50.330;7.914;2022-08-01T14:51:50;100634.63;;;29.04;37.12
64644;BME280;51056;50.330;7.914;2022-08-01T14:54:53;100619.03;;;30.75;34.29
64644;BME280;51056;50.330;7.914;2022-08-01T14:57:56;100631.03;;;28.68;38.39
64644;BME280;51056;50.330;7.914;2022-08-01T15:01:00;100638.50;;;31.10;35.10
64644;BME280;51056;50.330;7.914;2022-08-01T15:04:07;100637.34;;;29.04;38.51
64644;BME280;51056;50.330;7.914;2022-08-01T15:07:11;100640.16;;;27.81;42.38
64644;BME280;51056;50.330;7.914;2022-08-01T15:10:17;100634.50;;;28.13;41.25
64644;BME280;51056;50.330;7.914;2022-08-01T15:13:24;100630.69;;;29.48;38.70
64644;BME280;51056;50.330;7.914;2022-08-01T15:16:28;100635.09;;;29.14;39.55
64644;BME280;51056;50.330;7.914;2022-08-01T15:19:31;100639.38;;;28.02;40.86
64644;BME280;51056;50.330;7.914;2022-08-01T15:22:37;100646.47;;;27.23;42.58
64644;BME280;51056;50.330;7.914;2022-08-01T15:25:44;100649.63;;;26.36;45.26
64644;BME280;51056;50.330;7.914;2022-08-01T15:28:51;100654.13;;;26.12;46.36
64644;BME280;51056;50.330;7.914;2022-08-01T15:31:55;100656.66;;;26.14;46.58
64644;BME280;51056;50.330;7.914;2022-08-01T15:35:05;100659.94;;;26.01;47.11
64644;BME280;51056;50.330;7.914;2022-08-01T15:38:09;100662.59;;;25.70;47.38
64644;BME280;51056;50.330;7.914;2022-08-01T15:41:15;100660.88;;;25.85;47.76
64644;BME280;51056;50.330;7.914;2022-08-01T15:44:21;100660.03;;;25.77;47.76
64644;BME280;51056;50.330;7.914;2022-08-01T15:47:24;100659.44;;;25.58;47.52
64644;BME280;51056;50.330;7.914;2022-08-01T15:50:36;100666.25;;;25.29;48.04
64644;BME280;51056;50.330;7.914;2022-08-01T15:53:41;100659.50;;;25.50;48.16
64644;BME280;51056;50.330;7.914;2022-08-01T15:56:46;100666.88;;;25.40;47.38
64644;BME280;51056;50.330;7.914;2022-08-01T15:59:49;100666.19;;;25.54;47.02
64644;BME280;51056;50.330;7.914;2022-08-01T16:02:52;100657.19;;;25.47;47.12
64644;BME280;51056;50.330;7.914;2022-08-01T16:05:55;100658.91;;;25.32;47.30
64644;BME280;51056;50.330;7.914;2022-08-01T16:09:40;100657.25;;;25.22;47.97
64644;BME280;51056;50.330;7.914;2022-08-01T16:13:55;100670.78;;;25.29;47.02
64644;BME280;51056;50.330;7.914;2022-08-01T16:18:01;100671.75;;;25.36;47.86
64644;BME280;51056;50.330;7.914;2022-08-01T16:21:33;100670.97;;;25.19;46.68
64644;BME280;51056;50.330;7.914;2022-08-01T16:24:40;100669.66;;;25.15;46.19
64644;BME280;51056;50.330;7.914;2022-08-01T16:44:59;100671.13;;;25.26;46.91
64644;BME280;51056;50.330;7.914;2022-08-01T16:48:04;100671.66;;;25.13;47.93
64644;BME280;51056;50.330;7.914;2022-08-01T16:55:06;100659.78;;;25.16;48.21
64644;BME280;51056;50.330;7.914;2022-08-01T16:58:14;100669.34;;;25.02;48.88
64644;BME280;51056;50.330;7.914;2022-08-01T17:01:18;100659.94;;;25.22;48.72
64644;BME280;51056;50.330;7.914;2022-08-01T17:04:21;100669.00;;;25.05;48.70